Time;durP1;ratioP1;P1;durP2;ratioP2;P2;SDS_P1;SDS_P2;PMS_P1;PMS_P2;Temp;Humidity;BMP_temperature;BMP_pressure;BME280_temperature;BME280_humidity;BME280_pressure;Samples;Min_cycle;Max_cycle;Signal;HPM_P1;HPM_P2
2021/12/18 00:00:10;;;;;;;;;24.25;20.75;;;;;21.47;44.65;102716.41;6341988;22;49572;-70
2021/12/18 00:02:36;;;;;;;;;29.25;22.75;;;;;21.47;44.85;102708.44;6313609;22;47052;-70
2021/12/18 00:05:01;;;;;;;;;27.25;23.25;;;;;21.47;44.81;102711.09;6312950;22;64079;-70
2021/12/18 00:07:27;;;;;;;;;29.50;25.75;;;;;21.47;44.80;102709.31;6342673;22;45884;-70
2021/12/18 00:09:53;;;;;;;;;23.25;23.25;;;;;21.45;44.63;102706.63;6314350;22;52660;-70
2021/12/18 00:12:18;;;;;;;;;25.50;23.75;;;;;21.48;44.79;102710.19;6342083;22;45413;-70
2021/12/18 00:14:44;;;;;;;;;24.25;23.00;;;;;21.47;44.55;102701.34;6313608;22;60594;-70
2021/12/18 00:17:10;;;;;;;;;28.00;24.50;;;;;21.47;45.01;102700.47;6339874;22;45266;-70
2021/12/18 00:19:35;;;;;;;;;30.00;25.00;;;;;21.48;44.82;102696.91;6341335;22;56163;-70
2021/12/18 00:22:00;;;;;;;;;23.25;21.25;;;;;21.48;44.61;102699.56;6313788;22;47135;-70
2021/12/18 00:24:26;;;;;;;;;23.00;20.50;;;;;21.48;44.85;102696.91;6342259;22;45255;-70
2021/12/18 00:26:51;;;;;;;;;27.25;20.25;;;;;21.48;44.58;102697.78;6341460;22;57975;-70
2021/12/18 00:29:17;;;;;;;;;24.50;22.50;;;;;21.48;44.49;102697.78;6313104;22;68173;-70
2021/12/18 00:31:42;;;;;;;;;24.75;21.00;;;;;21.48;44.69;102692.47;6262104;22;47958;-70
2021/12/18 00:34:07;;;;;;;;;25.50;23.00;;;;;21.49;44.50;102691.59;6261105;22;68610;-70
2021/12/18 00:36:33;;;;;;;;;25.25;23.00;;;;;21.49;44.84;102690.69;6313921;22;52620;-70
2021/12/18 00:38:58;;;;;;;;;24.25;22.75;;;;;21.49;44.77;102699.56;6342273;22;45157;-70
2021/12/18 00:44:02;;;;;;;;;19.75;19.25;;;;;21.50;44.79;102689.81;6310649;22;45366;-70
2021/12/18 00:46:37;;;;;;;;;27.00;21.50;;;;;21.49;44.39;102694.25;6264910;22;45170;-70
2021/12/18 00:49:03;;;;;;;;;26.75;23.00;;;;;21.49;44.64;102683.59;6290199;22;45296;-70
2021/12/18 00:51:29;;;;;;;;;26.00;21.00;;;;;21.49;44.63;102672.97;6331237;22;47249;-70
2021/12/18 00:53:54;;;;;;;;;24.25;20.00;;;;;21.49;44.26;102678.28;6288319;22;45265;-70
2021/12/18 00:56:20;;;;;;;;;23.25;21.25;;;;;21.49;44.40;102680.94;6287651;22;45257;-70
2021/12/18 00:58:46;;;;;;;;;21.75;19.00;;;;;21.49;44.28;102677.41;6341297;22;45340;-70
2021/12/18 01:01:12;;;;;;;;;22.00;22.00;;;;;21.50;44.46;102676.53;6314189;22;45367;-70
2021/12/18 01:03:39;;;;;;;;;21.75;20.25;;;;;21.49;44.21;102675.63;6288445;22;45254;-70
2021/12/18 01:06:04;;;;;;;;;22.50;20.25;;;;;21.48;44.02;102671.22;6314273;22;45248;-70
2021/12/18 01:08:29;;;;;;;;;21.25;20.75;;;;;21.49;44.50;102670.31;6286809;22;67325;-70
2021/12/18 01:13:31;;;;;;;;;25.75;22.75;;;;;21.50;44.16;102679.19;6314853;22;45288;-70
2021/12/18 01:16:05;;;;;;;;;23.75;21.75;;;;;21.50;44.40;102684.50;6341674;22;45235;-70
2021/12/18 01:23:59;;;;;;;;;25.50;18.75;;;;;21.49;44.30;102688.03;6342097;22;45237;-70
2021/12/18 01:26:24;;;;;;;;;23.25;20.75;;;;;21.49;44.30;102696.91;6341589;22;50487;-70
2021/12/18 01:28:49;;;;;;;;;18.75;18.00;;;;;21.50;44.15;102692.47;6312276;22;70434;-70
2021/12/18 01:31:15;;;;;;;;;21.75;18.75;;;;;21.50;44.16;102696.00;6312435;22;73851;-70
2021/12/18 01:33:40;;;;;;;;;21.50;17.50;;;;;21.50;44.50;102689.81;6341459;22;51895;-70
2021/12/18 01:36:05;;;;;;;;;24.00;21.00;;;;;21.50;44.21;102681.84;6340348;22;45241;-70
2021/12/18 01:38:31;;;;;;;;;25.25;22.25;;;;;21.50;44.31;102690.69;6313925;22;45544;-70
2021/12/18 01:40:57;;;;;;;;;20.25;18.75;;;;;21.49;44.05;102696.91;6313195;22;47853;-70
2021/12/18 01:44:32;;;;;;;;;23.50;22.75;;;;;21.50;44.33;102692.47;6313881;22;45288;-70
2021/12/18 01:51:58;;;;;;;;;21.25;18.75;;;;;21.50;44.13;102705.75;6318213;22;45401;-70
2021/12/18 01:54:24;;;;;;;;;22.75;18.00;;;;;21.51;44.11;102703.06;6294612;22;45348;-70
2021/12/18 01:56:49;;;;;;;;;19.50;17.75;;;;;21.50;44.27;102701.31;6287614;22;46098;-70
2021/12/18 01:59:14;;;;;;;;;19.25;19.25;;;;;21.50;43.75;102693.34;6286576;22;65264;-70
2021/12/18 02:01:40;;;;;;;;;19.50;19.00;;;;;21.51;43.75;102695.09;6287738;22;45387;-70
2021/12/18 02:04:05;;;;;;;;;21.75;18.00;;;;;21.50;44.10;102688.03;6340389;22;72058;-70
2021/12/18 02:06:30;;;;;;;;;25.00;20.75;;;;;21.51;43.97;102696.88;6314065;22;45858;-70
2021/12/18 02:08:56;;;;;;;;;22.25;21.50;;;;;21.51;44.17;102703.06;6286190;22;72875;-70
2021/12/18 02:21:43;;;;;;;;;26.00;20.50;;;;;21.49;44.14;102696.00;6295343;22;45733;-70
2021/12/18 02:24:09;;;;;;;;;19.75;16.75;;;;;21.50;44.10;102689.81;6287193;22;45136;-70
2021/12/18 02:26:34;;;;;;;;;13.50;11.25;;;;;21.50;44.10;102695.13;6339786;22;45386;-71
2021/12/18 02:29:02;;;;;;;;;21.00;17.50;;;;;21.51;43.89;102696.88;6340943;22;49224;-70
2021/12/18 02:31:28;;;;;;;;;22.50;16.75;;;;;21.50;44.17;102701.31;6262517;22;46858;-70
2021/12/18 02:33:54;;;;;;;;;20.25;19.50;;;;;21.52;43.99;102701.31;6313635;22;45311;-70
2021/12/18 02:36:23;;;;;;;;;20.50;17.50;;;;;21.52;44.28;102701.31;6341015;22;45257;-70
2021/12/18 02:43:52;;;;;;;;;18.75;17.50;;;;;21.50;44.37;102693.34;6315289;22;45228;-70
2021/12/18 02:46:19;;;;;;;;;19.50;18.75;;;;;21.50;44.23;102692.47;6338960;22;58827;-70
2021/12/18 02:48:46;;;;;;;;;16.25;16.25;;;;;21.50;44.16;102690.69;6313401;22;45728;-70
2021/12/18 02:51:12;;;;;;;;;24.00;20.75;;;;;21.50;43.87;102685.38;6287486;22;45331;-70
2021/12/18 02:53:38;;;;;;;;;18.75;18.25;;;;;21.50;44.16;102688.03;6312813;22;45278;-70
2021/12/18 02:56:06;;;;;;;;;19.75;16.00;;;;;21.50;44.12;102692.47;6287432;22;45129;-70
2021/12/18 02:58:36;;;;;;;;;21.50;20.50;;;;;21.50;44.10;102690.69;6287219;22;45293;-70
2021/12/18 03:01:02;;;;;;;;;16.75;15.50;;;;;21.51;44.00;102695.09;6313051;22;48425;-70
2021/12/18 03:03:31;;;;;;;;;19.25;17.00;;;;;21.51;44.07;102694.22;6287639;22;45301;-70
2021/12/18 03:06:09;;;;;;;;;19.25;17.50;;;;;21.51;43.86;102696.88;6314289;22;45268;-70
2021/12/18 03:27:16;;;;;;;;;17.00;16.00;;;;;21.49;43.90;102690.69;6283897;22;45299;-70
2021/12/18 03:29:41;;;;;;;;;16.50;16.25;;;;;21.49;44.06;102690.69;6230139;22;45699;-70
2021/12/18 03:32:07;;;;;;;;;15.50;13.50;;;;;21.49;43.99;102693.34;6255697;22;47309;-70
2021/12/18 03:34:32;;;;;;;;;22.00;18.75;;;;;21.47;43.90;102685.41;6254631;22;61021;-70
2021/12/18 03:36:58;;;;;;;;;17.00;15.00;;;;;21.49;44.05;102685.38;6256224;22;45444;-71
2021/12/18 03:39:23;;;;;;;;;17.00;15.25;;;;;21.48;43.60;102691.59;6281871;22;45259;-70
2021/12/18 03:41:49;;;;;;;;;17.25;16.25;;;;;21.49;43.68;102691.59;6256107;22;46059;-70
2021/12/18 03:44:14;;;;;;;;;22.00;17.00;;;;;21.45;43.37;102682.72;6281584;22;45234;-70
2021/12/18 03:46:39;;;;;;;;;18.00;15.50;;;;;21.47;43.45;102690.72;6280974;22;66605;-70
2021/12/18 03:49:05;;;;;;;;;19.75;15.00;;;;;21.45;43.95;102685.38;6229868;22;45280;-70
2021/12/18 03:51:31;;;;;;;;;15.00;13.25;;;;;21.46;43.55;102678.31;6280860;22;71553;-70
2021/12/18 03:53:56;;;;;;;;;18.75;15.25;;;;;21.45;43.99;102676.53;6256350;22;45352;-70
2021/12/18 03:56:21;;;;;;;;;19.75;19.25;;;;;21.45;43.67;102669.44;6256510;22;61709;-70
2021/12/18 03:58:47;;;;;;;;;16.75;15.00;;;;;21.47;43.69;102673.91;6256318;22;52527;-70
2021/12/18 04:01:12;;;;;;;;;13.75;11.00;;;;;21.43;43.73;102671.22;6282546;22;58114;-70
2021/12/18 04:03:38;;;;;;;;;16.50;14.50;;;;;21.45;43.67;102672.09;6283341;22;45207;-70
2021/12/18 04:06:03;;;;;;;;;17.00;16.75;;;;;21.46;43.52;102675.66;6256343;22;66460;-70
2021/12/18 04:08:28;;;;;;;;;14.75;13.25;;;;;21.48;43.39;102681.84;6310462;22;54126;-70
2021/12/18 04:10:54;;;;;;;;;18.00;15.75;;;;;21.49;43.75;102672.09;6309446;22;65209;-71
2021/12/18 04:13:19;;;;;;;;;17.00;14.75;;;;;21.47;43.92;102673.91;6282362;22;57350;-70
2021/12/18 04:15:45;;;;;;;;;13.25;12.00;;;;;21.48;43.40;102675.66;6322092;22;45184;-70
2021/12/18 04:18:10;;;;;;;;;15.00;15.00;;;;;21.48;43.38;102676.53;6287235;22;61332;-70
2021/12/18 04:20:35;;;;;;;;;16.00;15.25;;;;;21.48;43.84;102680.97;6286594;22;71625;-70
2021/12/18 04:23:01;;;;;;;;;13.50;11.25;;;;;21.49;43.70;102682.72;6288226;22;46467;-70
2021/12/18 04:25:26;;;;;;;;;16.50;13.75;;;;;21.49;43.24;102674.75;6313934;22;56135;-70
2021/12/18 04:27:52;;;;;;;;;14.75;14.25;;;;;21.49;43.24;102680.06;6313812;22;45441;-70
2021/12/18 04:30:18;;;;;;;;;14.75;13.00;;;;;21.48;43.43;102673.00;6313833;22;48217;-70
2021/12/18 04:32:43;;;;;;;;;14.75;12.25;;;;;21.47;43.02;102674.78;6342367;22;45239;-70
2021/12/18 04:35:09;;;;;;;;;13.75;13.00;;;;;21.47;43.37;102677.44;6340536;22;45680;-70
2021/12/18 04:37:34;;;;;;;;;13.25;13.25;;;;;21.48;43.61;102683.63;6313528;22;61258;-70
2021/12/18 04:39:59;;;;;;;;;15.75;15.00;;;;;21.39;43.39;102665.97;6313785;22;47007;-70
2021/12/18 04:42:25;;;;;;;;;13.50;11.75;;;;;21.47;43.35;102681.88;6314261;22;45262;-70
2021/12/18 04:44:50;;;;;;;;;15.00;12.00;;;;;21.47;43.44;102674.78;6288313;22;45372;-70
2021/12/18 04:47:16;;;;;;;;;18.75;14.50;;;;;21.47;42.92;102679.22;6313376;22;64172;-70
2021/12/18 04:49:41;;;;;;;;;16.25;12.50;;;;;21.45;42.98;102676.53;6313597;22;61322;-70
2021/12/18 04:52:07;;;;;;;;;14.75;12.00;;;;;21.46;43.39;102688.94;6314286;22;45408;-70
2021/12/18 04:54:32;;;;;;;;;13.00;11.25;;;;;21.46;43.33;102688.94;6314490;22;45288;-70
2021/12/18 04:56:58;;;;;;;;;12.50;10.00;;;;;21.45;43.26;102685.38;6313516;22;59912;-70
2021/12/18 04:59:23;;;;;;;;;11.75;11.25;;;;;21.46;43.06;102696.91;6287332;22;48609;-70
2021/12/18 05:01:51;;;;;;;;;16.25;13.00;;;;;21.45;43.49;102688.03;6287781;22;45879;-70
2021/12/18 05:04:16;;;;;;;;;12.75;11.50;;;;;21.45;43.13;102695.13;6342154;22;45240;-70
2021/12/18 05:06:45;;;;;;;;;12.25;10.25;;;;;21.44;43.22;102688.94;6341884;22;45171;-70
2021/12/18 05:09:11;;;;;;;;;15.25;11.25;;;;;21.45;43.49;102692.47;6314728;22;45486;-70
2021/12/18 05:11:36;;;;;;;;;15.50;11.25;;;;;21.45;43.50;102696.00;6341896;22;45396;-70
2021/12/18 05:14:02;;;;;;;;;12.25;11.75;;;;;21.47;43.26;102697.81;6314111;22;45217;-70
2021/12/18 05:16:27;;;;;;;;;11.75;11.00;;;;;21.46;43.70;102694.25;6287531;22;45355;-70
2021/12/18 05:18:53;;;;;;;;;16.00;12.50;;;;;21.45;43.15;102703.97;6313949;22;45692;-70
2021/12/18 05:21:18;;;;;;;;;12.00;12.00;;;;;21.46;43.01;102702.22;6288113;22;45203;-70
2021/12/18 05:23:44;;;;;;;;;12.25;10.75;;;;;21.47;43.25;102700.47;6287995;22;45338;-70
2021/12/18 05:26:09;;;;;;;;;11.75;10.50;;;;;21.47;42.91;102700.47;6313078;22;64750;-70
2021/12/18 05:28:34;;;;;;;;;10.00;10.00;;;;;21.46;43.34;102688.94;6340833;22;63453;-70
2021/12/18 05:31:00;;;;;;;;;9.75;8.50;;;;;21.47;43.41;102692.50;6286916;22;62505;-70
2021/12/18 05:33:25;;;;;;;;;11.50;10.00;;;;;21.47;43.28;102697.81;6313409;22;59894;-70
2021/12/18 05:35:51;;;;;;;;;12.25;10.25;;;;;21.47;43.00;102698.69;6286928;22;56535;-70
2021/12/18 05:38:16;;;;;;;;;12.50;11.00;;;;;21.47;43.10;102689.84;6313897;22;45194;-70
2021/12/18 05:40:41;;;;;;;;;12.75;11.25;;;;;21.48;43.02;102702.22;6287568;22;45217;-70
2021/12/18 05:43:07;;;;;;;;;14.00;11.25;;;;;21.47;43.02;102696.03;6312908;22;60019;-70
2021/12/18 05:45:33;;;;;;;;;10.50;10.00;;;;;21.48;43.31;102703.09;6288101;22;45532;-71
2021/12/18 05:47:58;;;;;;;;;9.25;9.00;;;;;21.47;42.95;102693.38;6287211;22;47362;-70
2021/12/18 05:50:28;;;;;;;;;11.00;10.75;;;;;21.47;42.97;102690.72;6287194;22;64889;-70
2021/12/18 05:52:54;;;;;;;;;14.00;11.00;;;;;21.46;43.01;102691.59;6315311;22;45211;-70
2021/12/18 05:55:22;;;;;;;;;10.00;10.00;;;;;21.45;43.12;102680.06;6288187;22;45437;-71
2021/12/18 05:57:48;;;;;;;;;12.25;10.50;;;;;21.44;43.22;102688.06;6287647;22;48116;-70
2021/12/18 06:00:14;;;;;;;;;14.50;12.75;;;;;21.46;43.23;102688.94;6262032;22;45326;-70
2021/12/18 06:02:39;;;;;;;;;14.25;10.25;;;;;21.42;43.04;102685.41;6287654;22;45211;-70
2021/12/18 06:05:05;;;;;;;;;8.00;7.25;;;;;21.46;43.04;102688.94;6340701;22;67366;-70
2021/12/18 06:07:51;;;;;;;;;10.25;10.25;;;;;21.45;43.25;102687.16;6314678;22;47405;-70
2021/12/18 06:10:16;;;;;;;;;10.50;10.25;;;;;21.45;43.18;102682.72;6341768;22;45361;-70
2021/12/18 06:12:42;;;;;;;;;9.25;9.25;;;;;21.43;43.15;102700.44;6314234;22;45694;-70
2021/12/18 06:15:07;;;;;;;;;9.00;7.75;;;;;21.43;42.99;102684.50;6340277;22;60829;-70
2021/12/18 06:17:33;;;;;;;;;10.00;8.25;;;;;21.43;42.97;102688.94;6312812;22;46223;-70
2021/12/18 06:19:58;;;;;;;;;10.00;8.75;;;;;21.42;43.30;102684.53;6340406;22;65716;-71
2021/12/18 06:22:23;;;;;;;;;10.75;9.00;;;;;21.43;43.18;102681.84;6313072;22;64845;-71
2021/12/18 06:24:49;;;;;;;;;11.00;9.75;;;;;21.42;42.76;102680.09;6341470;22;45144;-71
2021/12/18 06:27:14;;;;;;;;;8.25;8.25;;;;;21.41;43.08;102673.03;6286227;22;68897;-70
2021/12/18 06:29:42;;;;;;;;;9.25;9.25;;;;;21.42;42.84;102676.56;6313561;22;45209;-70
2021/12/18 06:32:07;;;;;;;;;9.25;8.50;;;;;21.41;43.05;102678.34;6313519;22;45225;-70
2021/12/18 06:34:32;;;;;;;;;11.50;9.50;;;;;21.42;42.97;102680.09;6308538;22;45306;-70
2021/12/18 06:37:00;;;;;;;;;8.50;7.75;;;;;21.41;43.15;102674.78;6287406;22;45224;-71
2021/12/18 06:39:26;;;;;;;;;8.50;8.25;;;;;21.42;43.29;102685.41;6287862;22;45357;-70
2021/12/18 06:41:53;;;;;;;;;9.00;9.00;;;;;21.41;43.08;102686.31;6287024;22;57835;-71
2021/12/18 06:44:18;;;;;;;;;11.50;7.75;;;;;21.42;42.85;102687.19;6313953;22;45494;-69
2021/12/18 06:46:44;;;;;;;;;10.00;9.50;;;;;21.43;43.05;102689.81;6286796;22;61599;-71
2021/12/18 06:49:10;;;;;;;;;6.75;6.00;;;;;21.43;43.24;102683.63;6312043;22;65293;-69
2021/12/18 06:51:36;;;;;;;;;9.50;8.25;;;;;21.47;43.31;102689.84;6287526;22;45201;-70
2021/12/18 06:54:01;;;;;;;;;11.00;9.25;;;;;21.46;42.98;102691.59;6313468;22;45429;-69
2021/12/18 06:56:26;;;;;;;;;7.75;7.75;;;;;21.47;43.15;102692.50;6340193;22;67980;-68
2021/12/18 06:58:52;;;;;;;;;10.50;9.75;;;;;21.48;43.58;102699.56;6285707;22;61288;-70
2021/12/18 07:01:17;;;;;;;;;11.25;10.75;;;;;21.50;43.81;102703.97;6291300;22;45256;-73
2021/12/18 07:03:42;;;;;;;;;7.50;7.50;;;;;21.52;43.75;102688.91;6286961;22;45216;-70
2021/12/18 07:06:08;;;;;;;;;15.75;14.00;;;;;21.55;44.15;102688.03;6286482;22;71318;-71
2021/12/18 07:08:33;;;;;;;;;12.50;11.50;;;;;21.59;44.19;102692.41;6286558;22;46843;-72
2021/12/18 07:10:59;;;;;;;;;11.25;10.00;;;;;21.62;44.48;102690.59;6286824;22;51962;-74
2021/12/18 07:13:27;;;;;;;;;14.50;11.75;;;;;21.68;43.77;102693.25;6289620;22;45465;-80
2021/12/18 07:15:53;;;;;;;;;12.00;11.25;;;;;21.81;43.46;102688.75;6313283;22;45259;-73
2021/12/18 07:18:19;;;;;;;;;16.50;11.25;;;;;21.92;43.26;102697.53;6340908;22;45224;-75
2021/12/18 07:20:44;;;;;;;;;14.25;13.00;;;;;22.00;43.42;102698.38;6313318;22;45272;-77
2021/12/18 07:23:10;;;;;;;;;11.75;10.00;;;;;22.09;43.17;102696.56;6287416;22;45235;-73
2021/12/18 07:25:35;;;;;;;;;13.00;10.50;;;;;22.15;42.72;102702.72;6341183;22;46366;-74
2021/12/18 07:28:00;;;;;;;;;11.75;11.25;;;;;22.18;42.80;102707.13;6340860;22;45159;-72
2021/12/18 07:30:26;;;;;;;;;11.25;11.00;;;;;22.21;43.40;102701.78;6287913;22;45284;-74
2021/12/18 07:32:52;;;;;;;;;15.50;13.25;;;;;22.23;43.22;102710.63;6342247;22;45093;-72
2021/12/18 07:35:17;;;;;;;;;18.00;13.25;;;;;22.10;41.98;102699.22;6342168;22;54525;-75
2021/12/18 07:37:43;;;;;;;;;13.00;12.50;;;;;21.89;41.37;102709.94;6287767;22;48154;-75
2021/12/18 07:40:12;;;;;;;;;16.25;14.75;;;;;21.62;40.39;102721.63;6341857;22;62764;-75
2021/12/18 07:42:37;;;;;;;;;16.25;14.75;;;;;21.37;40.81;102715.53;6341712;22;45504;-74
2021/12/18 07:45:03;;;;;;;;;13.25;13.00;;;;;21.21;40.73;102712.03;6320500;22;45303;-75
2021/12/18 07:47:29;;;;;;;;;16.25;15.00;;;;;21.11;40.76;102723.56;6342024;22;45159;-75
2021/12/18 07:49:54;;;;;;;;;14.25;12.75;;;;;21.00;41.42;102714.75;6341793;22;62933;-76
2021/12/18 07:52:19;;;;;;;;;15.75;15.00;;;;;20.98;41.12;102719.19;6341665;22;58909;-74
2021/12/18 07:54:47;;;;;;;;;17.50;14.75;;;;;20.93;40.83;102718.28;6342586;22;45096;-75
2021/12/18 07:57:13;;;;;;;;;15.50;13.75;;;;;20.88;40.77;102720.97;6313918;22;45796;-76
2021/12/18 07:59:39;;;;;;;;;14.00;13.50;;;;;20.86;40.86;102722.75;6313861;22;45400;-74
2021/12/18 08:02:05;;;;;;;;;14.50;14.50;;;;;20.81;41.11;102716.56;6317241;22;45758;-73
2021/12/18 08:04:31;;;;;;;;;12.00;8.75;;;;;20.75;41.12;102717.44;6293327;22;47216;-75
2021/12/18 08:06:56;;;;;;;;;14.50;13.00;;;;;20.71;41.39;102717.47;6288648;22;45264;-73
2021/12/18 08:09:22;;;;;;;;;14.75;13.50;;;;;20.65;41.32;102705.06;6288758;22;45182;-74
2021/12/18 08:11:47;;;;;;;;;18.25;15.75;;;;;20.64;41.35;102713.03;6286710;22;67353;-74
2021/12/18 08:14:13;;;;;;;;;17.00;16.25;;;;;20.56;40.87;102711.28;6287248;22;62247;-74
2021/12/18 08:16:38;;;;;;;;;17.75;16.50;;;;;20.54;41.58;102714.81;6313531;22;54064;-73
2021/12/18 08:19:03;;;;;;;;;17.50;17.50;;;;;20.50;40.74;102708.66;6288135;22;45639;-74
2021/12/18 08:21:29;;;;;;;;;19.00;15.50;;;;;20.50;41.17;102721.00;6287737;22;59868;-75
2021/12/18 08:23:57;;;;;;;;;19.25;16.50;;;;;20.42;40.77;102723.66;6288684;22;46194;-74
2021/12/18 08:26:23;;;;;;;;;16.00;14.25;;;;;20.37;41.13;102719.22;6286784;22;61589;-74
2021/12/18 08:28:48;;;;;;;;;17.75;13.50;;;;;20.35;41.06;102734.25;6340222;22;45634;-73
2021/12/18 08:31:13;;;;;;;;;16.75;13.75;;;;;20.30;41.04;102724.50;6313294;22;45424;-72
2021/12/18 08:33:39;;;;;;;;;19.25;15.00;;;;;20.25;40.65;102726.28;6314156;22;46070;-73
2021/12/18 08:36:05;;;;;;;;;17.25;15.50;;;;;20.25;40.99;102728.06;6340963;22;67505;-73
2021/12/18 08:38:30;;;;;;;;;18.00;15.50;;;;;20.21;40.77;102727.16;6341994;22;45445;-75
2021/12/18 08:40:55;;;;;;;;;18.00;15.75;;;;;20.23;40.44;102732.44;6313153;22;54585;-75
2021/12/18 08:43:21;;;;;;;;;16.25;12.00;;;;;20.17;41.17;102730.69;6342280;22;45223;-75
2021/12/18 08:45:46;;;;;;;;;12.00;12.00;;;;;20.15;41.48;102727.13;6313434;22;45254;-74
2021/12/18 08:48:12;;;;;;;;;16.25;14.25;;;;;20.17;40.87;102721.84;6313405;22;62990;-75
2021/12/18 08:50:37;;;;;;;;;16.50;15.00;;;;;20.12;40.88;102726.25;6314213;22;45257;-75
2021/12/18 08:53:02;;;;;;;;;17.50;15.50;;;;;20.10;41.34;102728.91;6288172;22;45328;-75
2021/12/18 08:55:28;;;;;;;;;15.25;12.50;;;;;20.12;41.34;102723.59;6312555;22;71835;-74
2021/12/18 08:57:53;;;;;;;;;18.25;17.75;;;;;20.15;41.17;102720.94;6287812;22;45193;-74
2021/12/18 09:00:22;;;;;;;;;18.75;15.25;;;;;20.23;41.27;102728.03;6287699;22;45458;-74
2021/12/18 09:02:48;;;;;;;;;18.50;15.50;;;;;20.28;41.05;102726.28;6287560;22;48277;-75
2021/12/18 09:05:14;;;;;;;;;15.75;13.50;;;;;20.36;42.28;102726.28;6287728;22;45389;-77
2021/12/18 09:07:39;;;;;;;;;19.50;18.25;;;;;20.51;42.10;102726.31;6286544;22;45336;-78
2021/12/18 09:10:05;;;;;;;;;24.25;20.25;;;;;20.68;40.96;102725.44;6312040;22;55037;-75
2021/12/18 09:12:31;;;;;;;;;19.50;18.00;;;;;20.74;40.55;102720.09;6287467;22;47139;-75
2021/12/18 09:14:56;;;;;;;;;19.00;16.00;;;;;20.74;40.70;102722.75;6287253;22;45250;-75
2021/12/18 09:17:22;;;;;;;;;19.75;15.25;;;;;20.76;40.53;102723.63;6313683;22;53193;-74
2021/12/18 09:19:47;;;;;;;;;18.75;14.25;;;;;20.78;40.20;102724.53;6286795;22;62604;-74
2021/12/18 09:22:12;;;;;;;;;18.25;18.00;;;;;20.79;40.13;102715.69;6287866;22;48096;-75
2021/12/18 09:24:38;;;;;;;;;19.25;12.25;;;;;20.81;40.38;102706.81;6313906;22;45223;-74
2021/12/18 09:27:04;;;;;;;;;20.25;14.00;;;;;20.82;40.04;102715.66;6287267;22;45282;-75
2021/12/18 09:29:29;;;;;;;;;15.50;13.75;;;;;20.83;40.38;102713.00;6313939;22;45452;-75
2021/12/18 09:31:55;;;;;;;;;15.25;12.75;;;;;20.83;40.21;102707.69;6287399;22;59375;-75
2021/12/18 09:34:20;;;;;;;;;14.50;13.00;;;;;20.87;40.07;102695.31;6313984;22;45191;-75
2021/12/18 09:36:46;;;;;;;;;15.50;14.75;;;;;20.87;40.19;102701.50;6314344;22;45479;-75
2021/12/18 09:39:14;;;;;;;;;16.50;15.00;;;;;20.88;39.73;102705.03;6286538;22;67855;-74
2021/12/18 09:41:39;;;;;;;;;16.50;15.25;;;;;20.84;39.87;102706.81;6288766;22;45869;-75
2021/12/18 09:44:05;;;;;;;;;13.50;13.00;;;;;20.80;40.15;102694.44;6312910;22;62754;-75
2021/12/18 09:46:30;;;;;;;;;17.25;14.75;;;;;20.77;39.59;102701.53;6313945;22;45251;-76
2021/12/18 09:48:56;;;;;;;;;15.75;14.00;;;;;20.71;40.10;102701.53;6342036;22;45353;-74
2021/12/18 09:51:27;;;;;;;;;16.75;14.00;;;;;20.71;40.24;102712.16;6312363;22;45489;-75
2021/12/18 09:53:57;;;;;;;;;13.25;11.75;;;;;20.71;40.11;102706.84;6341518;22;45244;-76
2021/12/18 09:56:25;;;;;;;;;13.75;12.25;;;;;20.63;40.43;102695.34;6315283;22;45303;-75
2021/12/18 09:58:51;;;;;;;;;13.50;12.75;;;;;20.68;40.32;102702.44;6261242;22;45553;-75
2021/12/18 10:01:17;;;;;;;;;14.50;14.25;;;;;20.61;40.40;102700.66;6343322;22;46368;-75
2021/12/18 10:03:45;;;;;;;;;14.50;13.50;;;;;20.58;40.44;102692.69;6316222;22;45685;-75
2021/12/18 10:06:41;;;;;;;;;15.50;12.50;;;;;20.66;40.70;102704.19;6315429;22;45213;-75
2021/12/18 10:09:10;;;;;;;;;13.50;11.50;;;;;20.67;40.89;102695.34;6341386;22;45412;-75
2021/12/18 10:11:45;;;;;;;;;14.75;12.25;;;;;20.67;40.65;102695.34;6312444;22;48677;-75
2021/12/18 10:14:10;;;;;;;;;13.00;11.50;;;;;20.65;40.47;102685.63;6341671;22;45163;-73
2021/12/18 10:16:44;;;;;;;;;15.00;14.00;;;;;20.64;40.45;102695.34;6261176;22;45420;-75
2021/12/18 10:19:26;;;;;;;;;9.00;8.25;;;;;20.61;40.48;102695.38;6288451;22;45168;-74
2021/12/18 10:22:06;;;;;;;;;16.25;11.50;;;;;20.54;40.13;102686.53;6314628;22;45362;-75
2021/12/18 10:24:32;;;;;;;;;14.50;12.50;;;;;20.60;40.55;102688.28;6289092;22;45231;-75
2021/12/18 10:26:58;;;;;;;;;12.50;11.00;;;;;20.59;40.04;102687.41;6287730;22;45165;-75
2021/12/18 10:29:34;;;;;;;;;12.75;12.75;;;;;20.61;40.23;102695.38;6313882;22;45283;-75
2021/12/18 10:32:09;;;;;;;;;15.25;12.75;;;;;20.61;40.31;102695.38;6341508;22;46082;-75
2021/12/18 10:34:35;;;;;;;;;15.75;13.00;;;;;20.55;40.64;102680.31;6341075;22;45413;-74
2021/12/18 10:37:11;;;;;;;;;15.00;15.00;;;;;20.58;40.18;102685.63;6287568;22;45347;-73
2021/12/18 10:39:58;;;;;;;;;16.25;13.25;;;;;20.57;40.22;102685.63;6314723;22;45335;-75
2021/12/18 10:42:28;;;;;;;;;13.00;12.25;;;;;20.57;40.64;102680.31;6295089;22;45410;-74
2021/12/18 10:45:20;;;;;;;;;14.00;13.00;;;;;20.55;40.43;102676.78;6341288;22;45128;-74
2021/12/18 10:47:58;;;;;;;;;13.75;13.25;;;;;20.54;40.02;102678.56;6341676;22;45172;-75
2021/12/18 10:50:43;;;;;;;;;13.25;12.75;;;;;20.53;40.52;102679.44;6339358;22;45824;-75
2021/12/18 10:53:10;;;;;;;;;13.25;9.50;;;;;20.53;39.95;102674.16;6313165;22;47264;-74
2021/12/18 10:56:00;;;;;;;;;16.25;15.50;;;;;20.54;40.10;102677.69;6341662;22;45332;-75
2021/12/18 10:58:30;;;;;;;;;14.00;12.25;;;;;20.51;40.01;102667.97;6313443;22;45291;-73
2021/12/18 11:01:05;;;;;;;;;12.00;11.00;;;;;20.50;40.09;102663.56;6287400;22;45359;-73
2021/12/18 11:03:38;;;;;;;;;16.25;15.25;;;;;20.49;40.07;102666.19;6313571;22;45489;-73
2021/12/18 11:06:24;;;;;;;;;13.75;12.75;;;;;20.48;40.45;102662.66;6341021;22;45338;-75
2021/12/18 11:09:08;;;;;;;;;13.00;13.00;;;;;20.46;40.75;102656.47;6318511;22;45417;-78
2021/12/18 11:14:19;;;;;;;;;14.50;12.75;;;;;20.52;41.82;102653.81;6345608;22;45314;-75
2021/12/18 11:16:48;;;;;;;;;26.25;22.75;;;;;20.57;42.46;102651.13;6307770;22;45811;-75
2021/12/18 11:19:16;;;;;;;;;109.50;93.50;;;;;20.63;42.75;102651.13;6275435;22;45339;-74
2021/12/18 11:21:51;;;;;;;;;53.25;41.25;;;;;20.67;43.02;102652.00;6316541;22;45200;-76
2021/12/18 11:24:16;;;;;;;;;35.00;31.50;;;;;20.69;43.12;102653.78;6316860;22;45212;-75
2021/12/18 11:26:58;;;;;;;;;36.00;31.25;;;;;20.71;44.03;102651.13;6313619;22;45188;-77
2021/12/18 11:29:31;;;;;;;;;33.00;23.50;;;;;20.80;43.85;102654.63;6314110;22;45177;-77
2021/12/18 11:31:57;;;;;;;;;42.25;35.25;;;;;20.76;43.64;102644.00;6314125;22;45406;-74
2021/12/18 11:34:22;;;;;;;;;32.75;27.75;;;;;20.77;43.44;102641.38;6314513;22;45927;-74
2021/12/18 11:36:49;;;;;;;;;31.50;28.75;;;;;20.83;43.36;102649.31;6315108;22;45254;-73
2021/12/18 11:39:19;;;;;;;;;24.25;24.25;;;;;20.80;43.38;102633.41;6314248;22;45267;-75
2021/12/18 11:41:47;;;;;;;;;17.75;16.25;;;;;20.86;43.43;102635.16;6262306;22;45412;-77
2021/12/18 11:44:40;;;;;;;;;22.75;20.25;;;;;20.87;43.35;102636.94;6302550;22;45558;-78
2021/12/18 11:47:25;;;;;;;;;22.50;17.50;;;;;20.89;43.53;102629.84;6340366;22;45242;-79
2021/12/18 11:49:51;;;;;;;;;26.50;21.00;;;;;20.87;43.29;102624.53;6314330;22;45262;-75
2021/12/18 11:52:16;;;;;;;;;19.00;17.00;;;;;20.91;43.42;102633.38;6314157;22;46430;-77
2021/12/18 11:55:04;;;;;;;;;22.50;17.25;;;;;20.92;43.24;102623.63;6314388;22;45345;-74
2021/12/18 11:57:49;;;;;;;;;18.00;15.50;;;;;20.95;43.91;102631.59;6313703;22;45278;-76
2021/12/18 12:00:18;;;;;;;;;20.50;15.75;;;;;20.95;43.96;102621.84;6342390;22;45148;-79
2021/12/18 12:02:44;;;;;;;;;16.75;13.50;;;;;20.96;44.38;102614.78;6314082;22;45517;-76